Time;durP1;ratioP1;P1;durP2;ratioP2;P2;SDS_P1;SDS_P2;PMS_P1;PMS_P2;Temp;Humidity;BMP_temperature;BMP_pressure;BME280_temperature;BME280_humidity;BME280_pressure;Samples;Min_cycle;Max_cycle;Signal;HPM_P1;HPM_P2
2023/02/15 00:01:39;;;;;;;34.00;19.37;;;;;;;;;;5048245;28;20208;-66
2023/02/15 00:04:05;;;;;;;31.90;17.40;;;;;;;;;;5054299;28;20200;-66
2023/02/15 00:06:32;;;;;;;32.30;18.37;;;;;;;;;;5063152;28;20235;-66
2023/02/15 00:08:57;;;;;;;35.03;18.93;;;;;;;;;;5065251;28;20261;-66
2023/02/15 00:11:42;;;;;;;30.77;17.77;;;;;;;;;;5062654;28;20724;-66
2023/02/15 00:14:16;;;;;;;36.13;20.03;;;;;;;;;;5052659;28;20181;-66
2023/02/15 00:16:43;;;;;;;36.30;20.00;;;;;;;;;;5047614;28;20196;-66
2023/02/15 00:19:10;;;;;;;33.90;18.80;;;;;;;;;;5052072;28;20509;-66
2023/02/15 00:21:36;;;;;;;32.90;18.03;;;;;;;;;;5057023;28;20675;-66
2023/02/15 00:24:04;;;;;;;37.90;20.03;;;;;;;;;;5060746;28;20194;-67
2023/02/15 00:26:30;;;;;;;39.30;20.97;;;;;;;;;;5048825;28;20221;-67
2023/02/15 00:28:58;;;;;;;33.20;20.30;;;;;;;;;;5065153;28;20719;-67
2023/02/15 00:31:24;;;;;;;40.50;20.03;;;;;;;;;;5049080;28;20184;-67
2023/02/15 00:33:49;;;;;;;36.97;19.80;;;;;;;;;;5064607;28;20242;-67
2023/02/15 00:36:15;;;;;;;36.60;20.50;;;;;;;;;;5047880;28;20645;-67
2023/02/15 00:38:40;;;;;;;35.27;20.20;;;;;;;;;;5059098;28;20184;-67
2023/02/15 00:41:07;;;;;;;41.33;20.97;;;;;;;;;;5049871;28;20236;-67
2023/02/15 00:43:33;;;;;;;36.40;19.73;;;;;;;;;;5060873;28;20304;-67
2023/02/15 00:45:59;;;;;;;43.87;20.97;;;;;;;;;;5066928;28;20602;-67
2023/02/15 00:48:25;;;;;;;35.87;20.03;;;;;;;;;;5057239;28;20224;-67
2023/02/15 00:50:56;;;;;;;37.67;20.40;;;;;;;;;;5053005;28;20603;-67
2023/02/15 00:53:22;;;;;;;37.87;19.97;;;;;;;;;;5058930;28;20267;-67
2023/02/15 00:55:47;;;;;;;36.37;19.57;;;;;;;;;;5046020;28;20284;-67
2023/02/15 00:58:14;;;;;;;35.77;20.17;;;;;;;;;;5047103;28;20232;-67
2023/02/15 01:00:42;;;;;;;35.13;19.73;;;;;;;;;;5054765;28;20205;-68
2023/02/15 01:03:07;;;;;;;38.53;21.13;;;;;;;;;;5052503;28;20193;-67
2023/02/15 01:05:33;;;;;;;34.90;20.70;;;;;;;;;;5051538;28;20610;-67
2023/02/15 01:07:59;;;;;;;38.07;20.50;;;;;;;;;;5050786;28;20182;-67
2023/02/15 01:10:25;;;;;;;39.40;21.03;;;;;;;;;;5064311;28;20704;-68
2023/02/15 01:12:51;;;;;;;36.83;21.07;;;;;;;;;;5058771;28;20243;-67
2023/02/15 01:15:17;;;;;;;42.23;22.87;;;;;;;;;;5062114;28;20200;-67
2023/02/15 01:17:45;;;;;;;44.77;23.27;;;;;;;;;;5054115;28;20759;-67
2023/02/15 01:20:11;;;;;;;41.70;22.60;;;;;;;;;;5051487;28;20197;-67
2023/02/15 01:22:36;;;;;;;46.70;22.90;;;;;;;;;;5057412;28;20189;-67
2023/02/15 01:25:01;;;;;;;42.97;22.37;;;;;;;;;;5068871;28;20349;-68
2023/02/15 01:27:30;;;;;;;43.40;22.40;;;;;;;;;;5068296;28;20192;-67
2023/02/15 01:29:55;;;;;;;49.23;22.93;;;;;;;;;;5067219;28;20302;-65
2023/02/15 01:32:21;;;;;;;41.07;23.43;;;;;;;;;;5063332;28;20268;-65
2023/02/15 01:34:46;;;;;;;46.97;22.80;;;;;;;;;;5050145;28;20425;-66
2023/02/15 01:37:11;;;;;;;42.50;22.77;;;;;;;;;;5057560;28;20698;-66
2023/02/15 01:39:37;;;;;;;40.97;21.90;;;;;;;;;;5067948;28;20185;-66
2023/02/15 01:42:02;;;;;;;44.10;22.93;;;;;;;;;;5068146;28;20203;-66
2023/02/15 01:44:53;;;;;;;42.10;21.80;;;;;;;;;;5060594;28;20188;-66
2023/02/15 01:47:33;;;;;;;47.70;23.50;;;;;;;;;;5055089;28;20601;-66
2023/02/15 01:50:16;;;;;;;45.33;23.20;;;;;;;;;;5049534;28;20193;-67
2023/02/15 01:52:52;;;;;;;46.40;23.10;;;;;;;;;;5054550;28;20190;-66
2023/02/15 01:55:18;;;;;;;40.40;22.67;;;;;;;;;;5059266;28;20185;-66
2023/02/15 01:57:46;;;;;;;42.37;23.17;;;;;;;;;;5061336;28;20233;-66
2023/02/15 02:00:13;;;;;;;46.37;23.20;;;;;;;;;;5055788;28;20205;-66
2023/02/15 02:02:40;;;;;;;45.07;22.83;;;;;;;;;;5058234;28;20280;-66
2023/02/15 02:05:06;;;;;;;45.07;23.60;;;;;;;;;;5065294;28;20213;-66
2023/02/15 02:07:39;;;;;;;44.07;22.90;;;;;;;;;;5068147;28;20690;-66
2023/02/15 02:10:06;;;;;;;42.37;22.80;;;;;;;;;;5062794;28;20199;-66
2023/02/15 02:12:33;;;;;;;43.67;22.97;;;;;;;;;;5067227;28;20375;-66
2023/02/15 02:14:59;;;;;;;49.37;23.43;;;;;;;;;;5060040;28;20277;-66
2023/02/15 02:17:49;;;;;;;43.47;23.77;;;;;;;;;;5055963;28;20682;-66
2023/02/15 02:20:38;;;;;;;48.80;24.43;;;;;;;;;;5049065;28;20186;-67
2023/02/15 02:23:03;;;;;;;43.97;22.47;;;;;;;;;;5052420;28;20190;-66
2023/02/15 02:25:58;;;;;;;44.10;21.77;;;;;;;;;;5048852;28;20236;-66
2023/02/15 02:28:44;;;;;;;43.10;20.97;;;;;;;;;;5054304;28;20656;-66
2023/02/15 02:31:39;;;;;;;48.07;23.30;;;;;;;;;;5039314;28;20230;-66
2023/02/15 02:34:22;;;;;;;48.23;24.53;;;;;;;;;;5063752;28;20205;-66
2023/02/15 02:37:12;;;;;;;47.97;24.57;;;;;;;;;;5058963;28;20504;-66
2023/02/15 02:39:43;;;;;;;45.43;21.13;;;;;;;;;;5050119;28;20296;-66
2023/02/15 02:42:21;;;;;;;42.57;20.63;;;;;;;;;;5057434;28;20192;-66
2023/02/15 02:44:54;;;;;;;43.80;20.17;;;;;;;;;;5055527;28;20208;-67
2023/02/15 02:47:30;;;;;;;40.17;20.00;;;;;;;;;;5064076;28;20723;-67
2023/02/15 02:50:01;;;;;;;34.10;18.87;;;;;;;;;;5052425;28;20181;-67
2023/02/15 02:52:40;;;;;;;36.27;19.03;;;;;;;;;;5060088;28;20617;-67
2023/02/15 02:55:11;;;;;;;40.20;18.50;;;;;;;;;;5059080;28;20180;-67
2023/02/15 02:57:45;;;;;;;40.20;19.37;;;;;;;;;;5059673;28;20188;-67
2023/02/15 03:00:12;;;;;;;40.40;19.30;;;;;;;;;;5057804;28;20266;-67
2023/02/15 03:02:42;;;;;;;39.03;19.27;;;;;;;;;;5066388;28;20242;-67
2023/02/15 03:05:13;;;;;;;41.00;19.97;;;;;;;;;;5052313;28;20205;-67
2023/02/15 03:07:40;;;;;;;41.33;22.07;;;;;;;;;;5048443;28;20238;-67
2023/02/15 03:10:08;;;;;;;45.17;21.50;;;;;;;;;;5050302;28;20303;-67
2023/02/15 03:12:39;;;;;;;42.67;22.00;;;;;;;;;;5054097;28;20704;-67
2023/02/15 03:15:12;;;;;;;50.87;22.53;;;;;;;;;;5061873;28;20651;-67
2023/02/15 03:17:42;;;;;;;44.50;21.90;;;;;;;;;;5058656;28;20515;-67
2023/02/15 03:20:15;;;;;;;48.33;23.27;;;;;;;;;;5058305;28;20341;-67
2023/02/15 03:22:59;;;;;;;46.70;20.83;;;;;;;;;;5053080;28;20172;-67
2023/02/15 03:25:35;;;;;;;48.30;22.07;;;;;;;;;;5048513;28;20265;-67
2023/02/15 03:28:08;;;;;;;50.77;23.63;;;;;;;;;;5061395;28;20719;-67
2023/02/15 03:30:36;;;;;;;49.47;23.17;;;;;;;;;;5052333;28;20226;-67
2023/02/15 03:33:04;;;;;;;47.47;22.47;;;;;;;;;;5051079;28;20523;-67
2023/02/15 03:35:47;;;;;;;46.83;22.00;;;;;;;;;;5052597;28;21115;-67
2023/02/15 03:38:19;;;;;;;39.47;19.80;;;;;;;;;;5056462;28;20184;-66
2023/02/15 03:43:49;;;;;;;45.93;21.07;;;;;;;;;;5053358;28;20662;-67
2023/02/15 03:46:22;;;;;;;43.57;20.83;;;;;;;;;;5057060;28;20208;-67
2023/02/15 03:48:53;;;;;;;42.40;21.93;;;;;;;;;;5053735;28;20546;-67
2023/02/15 03:51:34;;;;;;;43.37;21.23;;;;;;;;;;5058277;28;20193;-67
2023/02/15 03:54:13;;;;;;;40.73;21.63;;;;;;;;;;5055535;28;20188;-67
2023/02/15 03:56:41;;;;;;;40.10;20.87;;;;;;;;;;5063443;28;20181;-67
2023/02/15 04:02:14;;;;;;;42.37;21.13;;;;;;;;;;5048006;28;20189;-67
2023/02/15 04:04:43;;;;;;;47.37;20.77;;;;;;;;;;5051537;28;20206;-67
2023/02/15 04:07:09;;;;;;;45.90;21.50;;;;;;;;;;5056250;28;20196;-67
2023/02/15 04:12:19;;;;;;;43.43;21.83;;;;;;;;;;5050042;28;20542;-67
2023/02/15 04:17:29;;;;;;;44.93;20.83;;;;;;;;;;5048171;28;20200;-67
2023/02/15 04:25:22;;;;;;;46.90;21.57;;;;;;;;;;5056387;28;20239;-67
2023/02/15 04:27:52;;;;;;;48.10;22.87;;;;;;;;;;5056152;28;20459;-67
2023/02/15 04:30:21;;;;;;;45.40;21.67;;;;;;;;;;5054438;28;20192;-68
2023/02/15 04:32:47;;;;;;;49.23;22.40;;;;;;;;;;5057775;28;20238;-68
2023/02/15 04:35:13;;;;;;;43.93;21.57;;;;;;;;;;5055352;28;20216;-66
2023/02/15 04:37:40;;;;;;;48.00;22.80;;;;;;;;;;5050952;28;20189;-67
2023/02/15 04:40:07;;;;;;;49.20;22.80;;;;;;;;;;5055157;28;20226;-67
2023/02/15 04:42:33;;;;;;;47.73;23.60;;;;;;;;;;5059526;28;20318;-67
2023/02/15 04:44:58;;;;;;;47.10;22.17;;;;;;;;;;5058536;28;20293;-67
2023/02/15 04:47:23;;;;;;;46.23;23.17;;;;;;;;;;5052973;28;20193;-67
2023/02/15 04:49:49;;;;;;;48.37;23.60;;;;;;;;;;5064716;28;20199;-67
2023/02/15 04:52:15;;;;;;;47.10;22.40;;;;;;;;;;5059604;28;20192;-67
2023/02/15 04:54:40;;;;;;;48.00;23.20;;;;;;;;;;5065462;28;20173;-68
2023/02/15 04:57:06;;;;;;;45.50;22.80;;;;;;;;;;5066147;28;20204;-68
2023/02/15 04:59:32;;;;;;;50.70;21.90;;;;;;;;;;5052423;28;20273;-67
2023/02/15 05:01:57;;;;;;;48.40;23.13;;;;;;;;;;5050541;28;20193;-67
2023/02/15 05:04:23;;;;;;;54.60;23.03;;;;;;;;;;5053352;28;20224;-67
2023/02/15 05:06:48;;;;;;;52.67;22.57;;;;;;;;;;5061958;28;20283;-67
2023/02/15 05:09:15;;;;;;;49.00;23.07;;;;;;;;;;5051926;28;20193;-68
2023/02/15 05:11:41;;;;;;;53.60;23.43;;;;;;;;;;5064955;28;20200;-67
2023/02/15 05:14:06;;;;;;;46.50;22.93;;;;;;;;;;5044277;28;20680;-67
2023/02/15 05:16:32;;;;;;;43.10;21.37;;;;;;;;;;5046335;28;20602;-68
2023/02/15 05:18:57;;;;;;;52.63;23.27;;;;;;;;;;5049373;28;20190;-67
2023/02/15 05:21:23;;;;;;;55.30;24.57;;;;;;;;;;5049649;28;20193;-67
2023/02/15 05:23:48;;;;;;;47.77;21.80;;;;;;;;;;5047288;28;20551;-67
2023/02/15 05:29:03;;;;;;;48.03;20.87;;;;;;;;;;5054550;28;20194;-68
2023/02/15 05:31:28;;;;;;;52.67;22.77;;;;;;;;;;5046948;28;20617;-67
2023/02/15 05:33:53;;;;;;;50.90;22.30;;;;;;;;;;5061265;28;20207;-67
2023/02/15 05:36:19;;;;;;;54.90;22.93;;;;;;;;;;5052943;28;20185;-67
2023/02/15 05:38:44;;;;;;;53.93;23.70;;;;;;;;;;5066388;28;20196;-67
2023/02/15 05:41:10;;;;;;;50.77;23.20;;;;;;;;;;5049465;28;20680;-67
2023/02/15 05:43:36;;;;;;;49.63;23.00;;;;;;;;;;5056490;28;20204;-67
2023/02/15 05:46:02;;;;;;;51.73;23.57;;;;;;;;;;5050510;28;20575;-67
2023/02/15 05:48:28;;;;;;;56.33;24.37;;;;;;;;;;5053564;28;20199;-68
2023/02/15 05:50:58;;;;;;;56.63;24.30;;;;;;;;;;5066393;28;20798;-67
2023/02/15 05:53:24;;;;;;;56.00;23.07;;;;;;;;;;5055761;28;20243;-67
2023/02/15 05:55:49;;;;;;;52.43;23.30;;;;;;;;;;5060911;28;20665;-68
2023/02/15 05:58:14;;;;;;;57.70;23.43;;;;;;;;;;5056550;28;20342;-67
2023/02/15 06:00:40;;;;;;;46.73;22.70;;;;;;;;;;5054402;28;20231;-67
2023/02/15 06:03:05;;;;;;;49.07;23.23;;;;;;;;;;5060511;28;21464;-66
2023/02/15 06:05:30;;;;;;;53.40;25.13;;;;;;;;;;5057860;28;20265;-67
2023/02/15 06:07:56;;;;;;;50.53;24.23;;;;;;;;;;5064261;28;20189;-67
2023/02/15 06:10:21;;;;;;;56.20;25.50;;;;;;;;;;5055426;28;20250;-67
2023/02/15 06:12:47;;;;;;;54.27;23.40;;;;;;;;;;5053497;28;20600;-67
2023/02/15 06:15:13;;;;;;;53.80;23.73;;;;;;;;;;5050957;28;20189;-67
2023/02/15 06:17:41;;;;;;;56.73;24.50;;;;;;;;;;5058137;28;20192;-67
2023/02/15 06:20:08;;;;;;;53.80;23.90;;;;;;;;;;5056231;28;20208;-67
2023/02/15 06:22:33;;;;;;;60.30;25.10;;;;;;;;;;5050180;28;20270;-67
2023/02/15 06:25:02;;;;;;;55.90;24.07;;;;;;;;;;5059116;28;20826;-67
2023/02/15 06:27:27;;;;;;;52.70;23.93;;;;;;;;;;5062580;28;20200;-68
2023/02/15 06:29:53;;;;;;;51.07;23.10;;;;;;;;;;5058332;28;20197;-68
2023/02/15 06:32:18;;;;;;;56.33;23.70;;;;;;;;;;5062049;28;20264;-68
2023/02/15 06:34:44;;;;;;;58.43;24.90;;;;;;;;;;5048323;28;20177;-67
2023/02/15 06:37:09;;;;;;;59.93;24.57;;;;;;;;;;5054359;28;20289;-68
2023/02/15 06:39:34;;;;;;;57.53;23.60;;;;;;;;;;5049802;28;20212;-67
2023/02/15 06:42:00;;;;;;;60.30;24.77;;;;;;;;;;5048986;28;20181;-68
2023/02/15 06:44:25;;;;;;;57.40;24.00;;;;;;;;;;5064124;28;20601;-68
2023/02/15 06:46:51;;;;;;;55.03;23.53;;;;;;;;;;5053858;28;20192;-67
2023/02/15 06:49:16;;;;;;;66.70;25.47;;;;;;;;;;5062796;28;20188;-67
2023/02/15 06:51:42;;;;;;;62.67;25.07;;;;;;;;;;5063656;28;20197;-68
2023/02/15 06:54:07;;;;;;;58.27;24.20;;;;;;;;;;5062843;28;20192;-68
2023/02/15 06:56:33;;;;;;;53.40;23.33;;;;;;;;;;5065362;28;20265;-68
2023/02/15 06:58:58;;;;;;;57.93;23.07;;;;;;;;;;5059900;28;20185;-68
2023/02/15 07:01:23;;;;;;;58.37;26.10;;;;;;;;;;5061197;28;20244;-68
2023/02/15 07:03:49;;;;;;;72.07;27.47;;;;;;;;;;5056488;28;20272;-67
2023/02/15 07:06:14;;;;;;;65.27;26.10;;;;;;;;;;5054893;28;20204;-68
2023/02/15 07:08:40;;;;;;;63.70;26.20;;;;;;;;;;5051430;28;20280;-68
2023/02/15 07:13:52;;;;;;;70.03;27.97;;;;;;;;;;5052527;28;20199;-68
2023/02/15 07:16:17;;;;;;;76.33;28.97;;;;;;;;;;5053104;28;20192;-69
2023/02/15 07:18:43;;;;;;;65.63;29.23;;;;;;;;;;5048502;28;20574;-67
2023/02/15 07:21:08;;;;;;;74.07;29.17;;;;;;;;;;5052307;28;20204;-67
2023/02/15 07:23:35;;;;;;;77.57;30.07;;;;;;;;;;5047442;28;20193;-67
2023/02/15 07:26:02;;;;;;;86.07;32.20;;;;;;;;;;5051399;28;20225;-67
2023/02/15 07:28:28;;;;;;;77.97;31.37;;;;;;;;;;5051998;28;20293;-67
2023/02/15 07:30:53;;;;;;;78.50;31.60;;;;;;;;;;5053552;28;20637;-67
2023/02/15 07:33:26;;;;;;;75.97;30.17;;;;;;;;;;5060588;28;20271;-67
2023/02/15 07:35:57;;;;;;;79.40;31.13;;;;;;;;;;5061001;28;20641;-68
2023/02/15 07:38:25;;;;;;;77.00;32.23;;;;;;;;;;5047950;28;20190;-67
2023/02/15 07:40:50;;;;;;;79.13;32.73;;;;;;;;;;5051871;28;20196;-67
2023/02/15 07:43:16;;;;;;;82.97;33.13;;;;;;;;;;5054929;28;20192;-67
2023/02/15 07:45:42;;;;;;;86.60;33.83;;;;;;;;;;5064051;28;20204;-67
2023/02/15 07:48:07;;;;;;;84.03;33.40;;;;;;;;;;5057328;28;20190;-67
2023/02/15 07:50:33;;;;;;;94.17;34.80;;;;;;;;;;5048343;28;20181;-67
2023/02/15 07:53:01;;;;;;;86.67;33.53;;;;;;;;;;5055144;28;20551;-67
2023/02/15 07:55:26;;;;;;;89.60;36.00;;;;;;;;;;5052632;28;20193;-68
2023/02/15 07:57:53;;;;;;;92.40;37.50;;;;;;;;;;5048743;28;20240;-67
2023/02/15 08:00:23;;;;;;;99.33;38.20;;;;;;;;;;5046798;28;20209;-67
2023/02/15 08:03:12;;;;;;;94.70;37.73;;;;;;;;;;5054953;28;20275;-67
2023/02/15 08:05:40;;;;;;;98.83;38.27;;;;;;;;;;5066808;28;20213;-67
2023/02/15 08:08:05;;;;;;;95.97;40.30;;;;;;;;;;5050906;28;20197;-67
2023/02/15 08:13:15;;;;;;;94.07;37.73;;;;;;;;;;5061698;28;20553;-67
2023/02/15 08:15:48;;;;;;;103.87;40.60;;;;;;;;;;5057504;28;20196;-67
2023/02/15 08:18:13;;;;;;;99.30;41.20;;;;;;;;;;5059042;28;20381;-67
2023/02/15 08:20:38;;;;;;;106.80;41.70;;;;;;;;;;5051877;28;20639;-67
2023/02/15 08:23:04;;;;;;;105.77;43.50;;;;;;;;;;5057180;28;20189;-67
2023/02/15 08:25:29;;;;;;;116.83;43.37;;;;;;;;;;5047044;28;20217;-67
2023/02/15 08:27:54;;;;;;;109.67;45.00;;;;;;;;;;5057346;28;20219;-67
2023/02/15 08:30:20;;;;;;;102.37;45.17;;;;;;;;;;5064214;28;20200;-66
2023/02/15 08:32:46;;;;;;;108.90;43.17;;;;;;;;;;5053294;28;20275;-66
2023/02/15 08:35:11;;;;;;;112.13;45.67;;;;;;;;;;5065344;28;20613;-66
2023/02/15 08:37:37;;;;;;;112.03;44.63;;;;;;;;;;5053084;28;20414;-66
2023/02/15 08:40:02;;;;;;;113.17;48.20;;;;;;;;;;5063305;28;20267;-66
2023/02/15 08:42:27;;;;;;;106.90;45.07;;;;;;;;;;5050811;28;20192;-66
2023/02/15 08:44:53;;;;;;;109.53;46.63;;;;;;;;;;5055998;28;20860;-66
2023/02/15 08:47:18;;;;;;;99.77;43.03;;;;;;;;;;5046076;28;20193;-66
2023/02/15 08:49:44;;;;;;;112.40;45.77;;;;;;;;;;5051975;28;20709;-67
2023/02/15 08:52:09;;;;;;;104.10;43.87;;;;;;;;;;5058660;28;20243;-66
2023/02/15 08:54:35;;;;;;;100.30;43.60;;;;;;;;;;5053134;28;20193;-66
2023/02/15 08:57:00;;;;;;;101.40;45.43;;;;;;;;;;5060621;28;20655;-66
2023/02/15 08:59:26;;;;;;;92.23;43.50;;;;;;;;;;5061056;28;20192;-66
2023/02/15 09:01:53;;;;;;;92.83;42.93;;;;;;;;;;5067213;28;20234;-66
2023/02/15 09:04:20;;;;;;;91.57;40.60;;;;;;;;;;5057956;28;20696;-67
2023/02/15 09:06:47;;;;;;;101.07;43.40;;;;;;;;;;5062150;28;20300;-66
2023/02/15 09:09:12;;;;;;;94.83;42.77;;;;;;;;;;5059000;28;20636;-67
2023/02/15 09:11:40;;;;;;;88.80;40.13;;;;;;;;;;5055587;28;20222;-66
2023/02/15 09:14:13;;;;;;;89.60;41.50;;;;;;;;;;5051647;28;20212;-67
2023/02/15 09:16:40;;;;;;;79.33;40.03;;;;;;;;;;5053794;28;20177;-66
2023/02/15 09:19:06;;;;;;;84.93;43.63;;;;;;;;;;5061614;28;20198;-67
2023/02/15 09:21:33;;;;;;;89.97;44.63;;;;;;;;;;5062109;28;20190;-67
2023/02/15 09:24:02;;;;;;;79.10;42.77;;;;;;;;;;5051830;28;20188;-67
2023/02/15 09:26:30;;;;;;;78.30;41.37;;;;;;;;;;5053711;28;20632;-67
2023/02/15 09:28:58;;;;;;;63.87;34.67;;;;;;;;;;5066273;28;20205;-67
2023/02/15 09:31:26;;;;;;;72.03;36.67;;;;;;;;;;5054613;28;20189;-67
2023/02/15 09:33:53;;;;;;;65.73;34.47;;;;;;;;;;5062396;28;20188;-67
2023/02/15 09:36:27;;;;;;;67.57;33.30;;;;;;;;;;5051983;28;20188;-67
2023/02/15 09:39:08;;;;;;;56.73;32.03;;;;;;;;;;5054655;28;20177;-67
2023/02/15 09:41:54;;;;;;;63.03;31.93;;;;;;;;;;5055490;28;20181;-67
2023/02/15 09:44:38;;;;;;;63.10;31.03;;;;;;;;;;5059839;28;20197;-67
2023/02/15 09:47:24;;;;;;;56.30;29.77;;;;;;;;;;5050891;28;20197;-67
2023/02/15 09:50:16;;;;;;;56.83;28.93;;;;;;;;;;5055409;28;20197;-67
2023/02/15 09:52:48;;;;;;;61.33;29.40;;;;;;;;;;5052892;28;20198;-67
2023/02/15 09:55:51;;;;;;;60.57;29.40;;;;;;;;;;5049439;28;20695;-67
2023/02/15 09:58:19;;;;;;;53.83;29.30;;;;;;;;;;5054107;28;20185;-67
2023/02/15 10:00:54;;;;;;;55.67;28.50;;;;;;;;;;5052444;28;20309;-67
2023/02/15 10:03:55;;;;;;;48.23;26.60;;;;;;;;;;5058463;28;20189;-67
2023/02/15 10:07:11;;;;;;;54.00;26.57;;;;;;;;;;5053980;28;20217;-67
2023/02/15 10:10:06;;;;;;;48.17;26.37;;;;;;;;;;5053788;28;20207;-67
2023/02/15 10:12:46;;;;;;;47.73;27.10;;;;;;;;;;5043447;28;20189;-67
2023/02/15 10:15:43;;;;;;;54.90;28.03;;;;;;;;;;5057311;28;20177;-67
2023/02/15 10:18:17;;;;;;;48.77;26.33;;;;;;;;;;5058973;28;20200;-67
2023/02/15 10:20:59;;;;;;;48.20;25.57;;;;;;;;;;5056173;28;20186;-67
2023/02/15 10:23:46;;;;;;;50.03;27.05;;;;;;;;;;5052580;28;20174;-67
2023/02/15 10:26:16;;;;;;;45.73;26.00;;;;;;;;;;5065430;28;20647;-67
2023/02/15 10:28:51;;;;;;;46.35;25.65;;;;;;;;;;5069717;28;20212;-67
2023/02/15 10:31:45;;;;;;;47.90;26.63;;;;;;;;;;5063452;28;20201;-67
2023/02/15 10:34:26;;;;;;;50.60;26.47;;;;;;;;;;5056276;28;20591;-67
2023/02/15 10:37:19;;;;;;;47.92;24.90;;;;;;;;;;5057127;28;20270;-67
2023/02/15 10:40:16;;;;;;;46.65;26.42;;;;;;;;;;5061098;28;20556;-67
2023/02/15 10:42:53;;;;;;;49.22;25.73;;;;;;;;;;5060955;28;20249;-67
2023/02/15 10:46:03;;;;;;;47.60;25.48;;;;;;;;;;5056394;28;20211;-67
2023/02/15 10:48:59;;;;;;;48.83;26.05;;;;;;;;;;5060583;28;20220;-67
2023/02/15 10:51:24;;;;;;;44.90;25.55;;;;;;;;;;5054560;28;20292;-67
2023/02/15 10:54:13;;;;;;;48.13;24.58;;;;;;;;;;5053763;28;20307;-67
2023/02/15 10:57:00;;;;;;;48.03;25.27;;;;;;;;;;5052488;28;20224;-67
2023/02/15 10:59:34;;;;;;;46.40;25.42;;;;;;;;;;5049847;28;20208;-68
2023/02/15 11:02:21;;;;;;;48.10;25.33;;;;;;;;;;5049472;28;20216;-67
2023/02/15 11:05:17;;;;;;;45.70;25.65;;;;;;;;;;5051427;28;20598;-67
2023/02/15 11:07:46;;;;;;;48.83;25.33;;;;;;;;;;5047860;28;20201;-67
2023/02/15 11:10:24;;;;;;;46.90;24.92;;;;;;;;;;5049494;28;20220;-67
2023/02/15 11:12:49;;;;;;;41.58;22.83;;;;;;;;;;5058198;28;20235;-67
2023/02/15 11:15:35;;;;;;;45.78;23.80;;;;;;;;;;5064536;28;20593;-67
2023/02/15 11:18:12;;;;;;;47.05;23.70;;;;;;;;;;5056157;28;20181;-67
2023/02/15 11:21:03;;;;;;;46.28;24.67;;;;;;;;;;5053630;28;20354;-67
2023/02/15 11:23:31;;;;;;;44.63;24.25;;;;;;;;;;5037223;28;20327;-67
2023/02/15 11:26:04;;;;;;;45.17;23.77;;;;;;;;;;5056403;28;20243;-67
2023/02/15 11:28:51;;;;;;;48.10;24.63;;;;;;;;;;5055912;28;20676;-67
2023/02/15 11:31:21;;;;;;;48.33;24.17;;;;;;;;;;5048466;28;20604;-67
2023/02/15 11:33:52;;;;;;;44.00;23.63;;;;;;;;;;5053181;28;20181;-67
2023/02/15 11:36:25;;;;;;;44.33;22.98;;;;;;;;;;5049975;28;20664;-67
2023/02/15 11:39:00;;;;;;;43.72;22.85;;;;;;;;;;5049647;28;20193;-67
2023/02/15 11:41:29;;;;;;;39.33;21.92;;;;;;;;;;5047145;28;20200;-67
2023/02/15 11:44:08;;;;;;;45.85;22.45;;;;;;;;;;5052379;28;20185;-67
2023/02/15 11:46:34;;;;;;;44.92;22.95;;;;;;;;;;5051865;28;20401;-67
2023/02/15 11:48:59;;;;;;;42.78;22.42;;;;;;;;;;5052503;28;20265;-67
2023/02/15 11:51:27;;;;;;;46.22;23.63;;;;;;;;;;5051894;28;20463;-67
2023/02/15 11:53:53;;;;;;;47.70;23.60;;;;;;;;;;5052826;28;20185;-67
2023/02/15 11:56:24;;;;;;;43.63;21.98;;;;;;;;;;5054679;28;20197;-67
2023/02/15 11:59:03;;;;;;;44.88;23.63;;;;;;;;;;5050269;28;20582;-67
2023/02/15 12:01:34;;;;;;;43.90;23.17;;;;;;;;;;5059245;28;20216;-67
2023/02/15 12:04:05;;;;;;;39.35;21.75;;;;;;;;;;5049440;28;20271;-67
2023/02/15 12:06:35;;;;;;;44.38;23.35;;;;;;;;;;5051107;28;20528;-67
2023/02/15 12:09:29;;;;;;;42.80;22.30;;;;;;;;;;5053266;28;20219;-67
2023/02/15 12:12:25;;;;;;;47.50;23.42;;;;;;;;;;5067146;28;20192;-67
2023/02/15 12:15:03;;;;;;;42.35;22.50;;;;;;;;;;5046974;28;20189;-67
2023/02/15 12:17:32;;;;;;;40.33;22.20;;;;;;;;;;5057594;28;20208;-67
2023/02/15 12:20:03;;;;;;;44.47;22.13;;;;;;;;;;5055329;28;20182;-67
2023/02/15 12:22:32;;;;;;;49.35;24.10;;;;;;;;;;5045835;28;20642;-68
2023/02/15 12:25:04;;;;;;;46.05;23.48;;;;;;;;;;5045573;28;20225;-67
2023/02/15 12:27:34;;;;;;;43.42;22.77;;;;;;;;;;5051903;28;20192;-67
2023/02/15 12:30:16;;;;;;;46.10;23.15;;;;;;;;;;5064453;28;20242;-67
2023/02/15 12:32:53;;;;;;;47.20;23.60;;;;;;;;;;5056129;28;20592;-67
2023/02/15 12:35:31;;;;;;;42.42;22.42;;;;;;;;;;5054866;28;20201;-67
2023/02/15 12:38:09;;;;;;;42.92;21.45;;;;;;;;;;5051721;28;20196;-67
2023/02/15 12:40:35;;;;;;;45.28;23.13;;;;;;;;;;5059728;28;20661;-67
2023/02/15 12:43:08;;;;;;;41.55;21.25;;;;;;;;;;5052849;28;20706;-67
2023/02/15 12:45:36;;;;;;;45.13;22.23;;;;;;;;;;5055943;28;20212;-67
2023/02/15 12:48:17;;;;;;;46.88;22.10;;;;;;;;;;5052010;28;20654;-67
2023/02/15 12:50:50;;;;;;;45.10;22.48;;;;;;;;;;5063465;28;20570;-67
2023/02/15 12:53:24;;;;;;;41.10;22.05;;;;;;;;;;5053289;28;20275;-67
2023/02/15 12:55:59;;;;;;;41.47;21.17;;;;;;;;;;5052970;28;20234;-67
2023/02/15 12:58:26;;;;;;;44.83;21.77;;;;;;;;;;5064237;28;20476;-67
2023/02/15 13:01:13;;;;;;;41.15;21.38;;;;;;;;;;5065465;28;20627;-67
2023/02/15 13:03:56;;;;;;;40.25;20.60;;;;;;;;;;5050924;28;20208;-67
2023/02/15 13:06:22;;;;;;;42.97;20.70;;;;;;;;;;5065585;28;20223;-67
2023/02/15 13:08:50;;;;;;;39.22;20.52;;;;;;;;;;5058820;28;20193;-67
2023/02/15 13:11:37;;;;;;;37.15;19.50;;;;;;;;;;5059600;28;20259;-67
2023/02/15 13:14:21;;;;;;;36.33;19.35;;;;;;;;;;5065139;28;20188;-67
2023/02/15 13:16:50;;;;;;;36.45;19.05;;;;;;;;;;5057944;28;20617;-67
2023/02/15 13:19:29;;;;;;;38.03;20.05;;;;;;;;;;5049593;28;20598;-67
2023/02/15 13:21:56;;;;;;;38.42;19.98;;;;;;;;;;5063446;28;20914;-67
2023/02/15 13:24:25;;;;;;;37.88;19.48;;;;;;;;;;5070357;28;20611;-67
2023/02/15 13:26:54;;;;;;;34.13;18.13;;;;;;;;;;5058992;28;20232;-67
2023/02/15 13:29:25;;;;;;;32.70;18.95;;;;;;;;;;5059366;28;20220;-67
2023/02/15 13:31:52;;;;;;;37.55;18.65;;;;;;;;;;5057202;28;20496;-67
2023/02/15 13:34:36;;;;;;;36.58;19.30;;;;;;;;;;5055192;28;20473;-67
2023/02/15 13:37:16;;;;;;;35.67;18.70;;;;;;;;;;5054344;28;20208;-67
2023/02/15 13:39:57;;;;;;;35.50;19.50;;;;;;;;;;5056218;28;20185;-67
2023/02/15 13:42:41;;;;;;;36.00;18.88;;;;;;;;;;5055174;28;20205;-67
2023/02/15 13:45:12;;;;;;;39.72;20.00;;;;;;;;;;5052715;28;20287;-67
2023/02/15 13:48:07;;;;;;;41.35;20.73;;;;;;;;;;5052109;28;20189;-67
2023/02/15 13:50:56;;;;;;;43.75;20.48;;;;;;;;;;5051443;28;20550;-67
2023/02/15 13:53:40;;;;;;;35.42;19.08;;;;;;;;;;5051620;28;20621;-68
2023/02/15 13:56:14;;;;;;;39.40;20.60;;;;;;;;;;5061419;28;20273;-67
2023/02/15 13:58:52;;;;;;;38.60;20.02;;;;;;;;;;5069209;28;20196;-67
2023/02/15 14:01:40;;;;;;;37.10;19.83;;;;;;;;;;5058058;28;20221;-67
2023/02/15 14:04:51;;;;;;;38.83;19.38;;;;;;;;;;5054876;28;20216;-66
2023/02/15 14:07:22;;;;;;;35.80;19.38;;;;;;;;;;5055318;28;20201;-66
2023/02/15 14:10:11;;;;;;;34.70;19.50;;;;;;;;;;5053625;28;20224;-66
2023/02/15 14:12:52;;;;;;;41.05;20.50;;;;;;;;;;5057192;28;20193;-66
2023/02/15 14:15:36;;;;;;;42.40;20.42;;;;;;;;;;5055616;28;20186;-66
2023/02/15 14:18:07;;;;;;;41.88;22.17;;;;;;;;;;5050043;28;20189;-65
2023/02/15 14:20:56;;;;;;;43.13;20.85;;;;;;;;;;5058775;28;20650;-67
2023/02/15 14:23:38;;;;;;;42.42;20.55;;;;;;;;;;5051529;28;20185;-67
2023/02/15 14:26:09;;;;;;;47.05;21.75;;;;;;;;;;5051630;28;20308;-67
2023/02/15 14:29:09;;;;;;;43.67;20.58;;;;;;;;;;5049511;28;20661;-66
2023/02/15 14:31:40;;;;;;;46.95;21.38;;;;;;;;;;5056727;28;20189;-65
2023/02/15 14:34:25;;;;;;;42.05;21.98;;;;;;;;;;5056392;28;20186;-67
2023/02/15 14:36:53;;;;;;;38.75;21.02;;;;;;;;;;5053440;28;20629;-67
2023/02/15 14:42:47;;;;;;;39.58;21.05;;;;;;;;;;5050016;28;20248;-68
2023/02/15 14:45:29;;;;;;;41.63;20.73;;;;;;;;;;5059023;28;20224;-65
2023/02/15 14:48:14;;;;;;;42.22;21.55;;;;;;;;;;5054317;28;20211;-66
2023/02/15 14:50:43;;;;;;;41.88;21.42;;;;;;;;;;5055192;28;20245;-65
2023/02/15 14:53:24;;;;;;;43.40;21.67;;;;;;;;;;5052533;28;20478;-65
2023/02/15 14:56:13;;;;;;;40.70;21.48;;;;;;;;;;5049228;28;20182;-67
2023/02/15 14:58:56;;;;;;;40.28;21.38;;;;;;;;;;5058798;28;20345;-67
2023/02/15 15:01:34;;;;;;;39.88;21.50;;;;;;;;;;5054813;28;20232;-65
2023/02/15 15:04:08;;;;;;;44.42;21.17;;;;;;;;;;5054696;28;20225;-66
2023/02/15 15:06:35;;;;;;;38.58;21.15;;;;;;;;;;5055757;28;20250;-65
2023/02/15 15:09:27;;;;;;;42.63;20.88;;;;;;;;;;5063695;28;20283;-66
2023/02/15 15:12:35;;;;;;;42.90;21.77;;;;;;;;;;5056669;28;20185;-65
2023/02/15 15:15:02;;;;;;;38.42;21.27;;;;;;;;;;5054444;28;20189;-67